Time;durP1;ratioP1;P1;durP2;ratioP2;P2;SDS_P1;SDS_P2;PMS_P1;PMS_P2;Temp;Humidity;BMP_temperature;BMP_pressure;BME280_temperature;BME280_humidity;BME280_pressure;Samples;Min_cycle;Max_cycle;Signal;HPM_P1;HPM_P2
2022/10/29 00:00:41;;;;;;;15.93;4.78;;;13.00;99.90;;;;;;5087317;28;20077;-70
2022/10/29 00:03:07;;;;;;;13.27;4.30;;;13.00;99.90;;;;;;5082758;28;20466;-70
2022/10/29 00:05:33;;;;;;;16.77;4.80;;;13.00;99.90;;;;;;5084701;28;20036;-70
2022/10/29 00:08:00;;;;;;;12.35;4.45;;;13.00;99.90;;;;;;5066850;28;20486;-70
2022/10/29 00:10:26;;;;;;;13.10;4.38;;;13.00;99.90;;;;;;5090205;28;20043;-70
2022/10/29 00:12:52;;;;;;;12.75;4.28;;;12.90;99.90;;;;;;5085600;28;20043;-70
2022/10/29 00:15:18;;;;;;;16.20;4.30;;;12.90;99.90;;;;;;5083803;28;20416;-69
2022/10/29 00:17:46;;;;;;;20.65;5.00;;;12.90;99.90;;;;;;5055168;28;20478;-69
2022/10/29 00:20:12;;;;;;;14.98;4.30;;;12.90;99.90;;;;;;5086324;28;20036;-70
2022/10/29 00:22:38;;;;;;;16.92;5.20;;;12.90;99.90;;;;;;5072272;28;20058;-70
2022/10/29 00:25:04;;;;;;;14.50;4.78;;;12.90;99.90;;;;;;5069213;28;20028;-70
2022/10/29 00:27:29;;;;;;;12.90;4.63;;;12.90;99.90;;;;;;5088457;28;20028;-70
2022/10/29 00:29:55;;;;;;;13.40;5.10;;;12.90;99.90;;;;;;5084592;28;20214;-69
2022/10/29 00:32:21;;;;;;;17.67;4.75;;;12.90;99.90;;;;;;5066760;28;20123;-70
2022/10/29 00:34:47;;;;;;;17.77;5.72;;;12.80;99.90;;;;;;5070233;28;20497;-70
2022/10/29 00:37:13;;;;;;;12.65;4.45;;;12.80;99.90;;;;;;5068571;28;20067;-70
2022/10/29 00:39:38;;;;;;;15.23;5.07;;;12.80;99.90;;;;;;5054136;28;20060;-70
2022/10/29 00:42:04;;;;;;;15.02;4.60;;;12.80;99.90;;;;;;5087177;28;20044;-69
2022/10/29 00:44:34;;;;;;;15.10;4.65;;;12.80;99.90;;;;;;5082012;28;20091;-69
2022/10/29 00:47:29;;;;;;;16.52;4.93;;;12.80;99.90;;;;;;5084717;28;20044;-70
2022/10/29 00:50:13;;;;;;;17.58;5.03;;;12.80;99.90;;;;;;5070802;28;20115;-70
2022/10/29 00:52:46;;;;;;;21.10;5.85;;;12.80;99.90;;;;;;5083206;28;20044;-69
2022/10/29 00:55:14;;;;;;;21.55;5.53;;;12.80;99.90;;;;;;5072315;28;20035;-70
2022/10/29 00:57:50;;;;;;;19.48;5.55;;;12.80;99.90;;;;;;5075889;28;20044;-70
2022/10/29 01:00:17;;;;;;;16.10;6.32;;;12.80;99.90;;;;;;5081261;28;20401;-70
2022/10/29 01:02:46;;;;;;;20.98;6.03;;;12.80;99.90;;;;;;5088508;28;20063;-70
2022/10/29 01:05:18;;;;;;;21.85;5.97;;;12.70;99.90;;;;;;5080286;28;20097;-69
2022/10/29 01:07:45;;;;;;;17.05;5.93;;;12.70;99.90;;;;;;5088704;28;20393;-69
2022/10/29 01:10:12;;;;;;;23.30;6.30;;;12.70;99.90;;;;;;5077983;28;20044;-70
2022/10/29 01:13:16;;;;;;;18.77;6.20;;;12.70;99.90;;;;;;5087868;28;20082;-70
2022/10/29 01:15:57;;;;;;;19.80;6.40;;;12.70;99.90;;;;;;5025761;28;20101;-69
2022/10/29 01:18:42;;;;;;;22.65;6.80;;;12.70;99.90;;;;;;5099534;27;20115;-68
2022/10/29 01:21:41;;;;;;;18.60;6.57;;;12.70;99.90;;;;;;5066376;28;20109;-70
2022/10/29 01:24:18;;;;;;;18.98;6.80;;;12.60;99.90;;;;;;5031070;28;20045;-68
2022/10/29 01:27:22;;;;;;;16.60;5.97;;;12.60;99.90;;;;;;5065118;28;20051;-70
2022/10/29 01:29:59;;;;;;;21.80;6.53;;;12.60;99.90;;;;;;5082876;28;20062;-70
2022/10/29 01:32:31;;;;;;;18.70;6.65;;;12.50;99.90;;;;;;5079464;28;20043;-69
2022/10/29 01:35:17;;;;;;;17.43;7.57;;;12.50;99.90;;;;;;5091220;28;20079;-69
2022/10/29 01:38:07;;;;;;;22.25;7.68;;;12.50;99.90;;;;;;5080478;28;20693;-69
2022/10/29 01:40:55;;;;;;;24.00;7.43;;;12.50;99.90;;;;;;5080929;28;20075;-69
2022/10/29 01:43:27;;;;;;;21.58;7.57;;;12.50;99.90;;;;;;5079994;28;20055;-69
2022/10/29 01:46:07;;;;;;;22.83;8.23;;;12.50;99.90;;;;;;5080510;28;20047;-70
2022/10/29 01:48:36;;;;;;;18.83;7.55;;;12.50;99.90;;;;;;5080914;28;20055;-69
2022/10/29 01:51:19;;;;;;;18.55;7.70;;;12.50;99.90;;;;;;5082519;28;20051;-70
2022/10/29 01:53:45;;;;;;;25.17;8.45;;;12.40;99.90;;;;;;5081432;28;20580;-70
2022/10/29 01:56:11;;;;;;;31.90;9.15;;;12.40;99.90;;;;;;5079834;28;20133;-69
2022/10/29 01:58:40;;;;;;;22.30;9.07;;;12.40;99.90;;;;;;5081349;28;20397;-70
2022/10/29 02:01:27;;;;;;;21.15;7.68;;;12.40;99.90;;;;;;5064820;28;20060;-69
2022/10/29 02:03:59;;;;;;;20.63;8.43;;;12.40;99.90;;;;;;5085440;28;20510;-70
2022/10/29 02:06:55;;;;;;;24.73;9.18;;;12.40;99.90;;;;;;5074531;28;20045;-69
2022/10/29 02:09:53;;;;;;;24.05;9.23;;;12.40;99.90;;;;;;5081932;28;20519;-69
2022/10/29 02:12:21;;;;;;;16.58;8.43;;;12.30;99.90;;;;;;5066084;28;20421;-70
2022/10/29 02:14:57;;;;;;;29.52;9.88;;;12.30;99.90;;;;;;5062317;28;20048;-70
2022/10/29 02:17:23;;;;;;;24.33;8.63;;;12.30;99.90;;;;;;5087099;28;20067;-70
2022/10/29 02:19:49;;;;;;;18.77;8.32;;;12.30;99.90;;;;;;5066145;28;20047;-69
2022/10/29 02:22:19;;;;;;;21.42;8.93;;;12.30;99.90;;;;;;5062348;28;20039;-69
2022/10/29 02:24:45;;;;;;;18.65;9.00;;;12.20;99.90;;;;;;5065618;28;20129;-70
2022/10/29 02:27:11;;;;;;;19.02;8.30;;;12.20;99.90;;;;;;5069892;28;20065;-70
2022/10/29 02:29:36;;;;;;;14.25;7.72;;;12.20;99.90;;;;;;5078476;28;20040;-69
2022/10/29 02:32:02;;;;;;;22.45;7.18;;;12.10;99.90;;;;;;5089179;28;20113;-71
2022/10/29 02:34:31;;;;;;;21.00;8.25;;;12.10;99.90;;;;;;5089067;28;20063;-70
2022/10/29 02:36:57;;;;;;;16.05;7.80;;;12.00;99.90;;;;;;5071169;28;20121;-70
2022/10/29 02:39:22;;;;;;;15.23;8.48;;;11.90;99.90;;;;;;5087573;28;20109;-70
2022/10/29 02:41:48;;;;;;;19.10;8.63;;;11.90;99.90;;;;;;5075831;28;20042;-70
2022/10/29 02:44:14;;;;;;;21.35;7.78;;;11.80;99.90;;;;;;5071172;28;20036;-70
2022/10/29 02:46:40;;;;;;;23.55;9.48;;;11.80;99.90;;;;;;5082726;28;20035;-70
2022/10/29 02:49:06;;;;;;;17.30;9.32;;;11.80;99.90;;;;;;5069449;28;20043;-69
2022/10/29 02:51:32;;;;;;;23.60;9.68;;;11.70;99.90;;;;;;5087054;28;20251;-70
2022/10/29 02:53:58;;;;;;;19.48;9.27;;;11.70;99.90;;;;;;5088368;28;20036;-70
2022/10/29 02:56:24;;;;;;;21.38;8.52;;;11.70;99.90;;;;;;5051325;28;20473;-69
2022/10/29 02:58:50;;;;;;;21.20;8.13;;;11.70;99.90;;;;;;5080974;28;20055;-69
2022/10/29 03:01:16;;;;;;;21.95;8.10;;;11.70;99.90;;;;;;5065732;28;20119;-70
2022/10/29 03:03:41;;;;;;;16.27;8.20;;;11.70;99.90;;;;;;5064422;28;20441;-69
2022/10/29 03:06:18;;;;;;;18.75;7.93;;;11.60;99.90;;;;;;5070233;28;20082;-70
2022/10/29 03:08:45;;;;;;;16.00;7.47;;;11.70;99.90;;;;;;5083267;28;20073;-69
2022/10/29 03:11:11;;;;;;;16.17;7.38;;;11.70;99.90;;;;;;5079935;28;20048;-70
2022/10/29 03:13:37;;;;;;;14.15;8.40;;;11.60;99.90;;;;;;5078576;28;20520;-69
2022/10/29 03:16:04;;;;;;;29.90;13.93;;;11.60;99.90;;;;;;5080023;28;20044;-71
2022/10/29 03:18:30;;;;;;;25.73;11.63;;;11.60;99.90;;;;;;5064774;28;20123;-69
2022/10/29 03:20:55;;;;;;;23.17;10.15;;;11.60;99.90;;;;;;5078384;28;20490;-69
2022/10/29 03:23:21;;;;;;;21.85;10.27;;;11.60;99.90;;;;;;5068983;28;20090;-70
2022/10/29 03:25:54;;;;;;;28.70;11.88;;;11.60;99.90;;;;;;5099957;27;20044;-69
2022/10/29 03:28:21;;;;;;;26.58;12.27;;;11.60;99.90;;;;;;5080678;28;20083;-70
2022/10/29 03:30:47;;;;;;;33.30;13.95;;;11.60;99.90;;;;;;5082056;28;20040;-69
2022/10/29 03:33:24;;;;;;;33.85;14.60;;;11.60;99.90;;;;;;5079259;28;20123;-70
2022/10/29 03:35:56;;;;;;;36.88;15.77;;;11.70;99.90;;;;;;5029444;28;20051;-70
2022/10/29 03:38:23;;;;;;;38.72;15.07;;;11.80;99.90;;;;;;5082336;28;20044;-69
2022/10/29 03:40:53;;;;;;;37.25;15.85;;;11.90;99.90;;;;;;5080984;28;20458;-69
2022/10/29 03:43:23;;;;;;;37.75;14.82;;;11.90;99.90;;;;;;5081002;28;20484;-69
2022/10/29 03:45:53;;;;;;;35.60;15.25;;;11.90;99.90;;;;;;5076381;28;20043;-69
2022/10/29 03:48:20;;;;;;;44.22;16.48;;;11.90;99.90;;;;;;5084075;28;20508;-69
2022/10/29 03:50:57;;;;;;;38.08;15.60;;;11.90;99.90;;;;;;5080756;28;22069;-70
2022/10/29 03:53:24;;;;;;;31.55;14.90;;;11.90;99.90;;;;;;5079292;28;20450;-70
2022/10/29 03:55:55;;;;;;;;;;;12.00;99.90;;;;;;5080200;28;20495;-69
2022/10/29 03:58:22;;;;;;;30.38;14.30;;;12.00;99.90;;;;;;5086929;28;19915;-68
2022/10/29 04:00:54;;;;;;;30.55;14.38;;;12.00;99.90;;;;;;5082076;28;20060;-69
2022/10/29 04:03:20;;;;;;;31.27;14.32;;;11.90;99.90;;;;;;5080313;28;20074;-69
2022/10/29 04:05:46;;;;;;;29.73;13.63;;;12.00;99.90;;;;;;5080715;28;20072;-69
2022/10/29 04:08:12;;;;;;;27.20;12.93;;;12.00;99.90;;;;;;5081135;28;20028;-70
2022/10/29 04:10:42;;;;;;;40.28;14.68;;;11.90;99.90;;;;;;5062270;28;20032;-70
2022/10/29 04:13:07;;;;;;;29.92;13.55;;;11.90;99.90;;;;;;5082146;28;20136;-69
2022/10/29 04:15:35;;;;;;;36.22;15.10;;;11.90;99.90;;;;;;5066917;28;20040;-69
2022/10/29 04:18:01;;;;;;;36.40;13.85;;;11.90;99.90;;;;;;5083746;28;20048;-69
2022/10/29 04:20:27;;;;;;;29.23;13.10;;;11.90;99.90;;;;;;5081117;28;20028;-69
2022/10/29 04:22:52;;;;;;;35.03;12.25;;;11.90;99.90;;;;;;5077318;28;20108;-69
2022/10/29 04:25:18;;;;;;;27.90;12.68;;;11.90;99.90;;;;;;5081409;28;20044;-70
2022/10/29 04:27:44;;;;;;;34.78;14.05;;;11.90;99.90;;;;;;5062417;28;20058;-69
2022/10/29 04:30:10;;;;;;;33.25;13.95;;;11.90;99.90;;;;;;5062731;28;20231;-70
2022/10/29 04:32:36;;;;;;;32.72;14.93;;;11.90;99.90;;;;;;5082050;28;20121;-69
2022/10/29 04:35:01;;;;;;;28.48;14.40;;;11.90;99.90;;;;;;5065775;28;20048;-69
2022/10/29 04:37:29;;;;;;;28.83;14.38;;;11.90;99.90;;;;;;5064921;28;20271;-70
2022/10/29 04:40:00;;;;;;;30.98;14.13;;;12.00;99.90;;;;;;5071539;28;20088;-69
2022/10/29 04:42:26;;;;;;;34.42;13.55;;;12.00;99.90;;;;;;5053481;28;20048;-69
2022/10/29 04:44:52;;;;;;;43.03;15.52;;;12.00;99.90;;;;;;5069186;28;20071;-69
2022/10/29 04:47:18;;;;;;;32.47;13.35;;;12.00;99.90;;;;;;5070735;28;20036;-69
2022/10/29 04:49:43;;;;;;;33.92;14.82;;;12.00;99.90;;;;;;5050219;28;20134;-69
2022/10/29 04:52:09;;;;;;;35.67;14.98;;;12.00;99.90;;;;;;5071192;28;20129;-69
2022/10/29 04:54:35;;;;;;;39.50;14.00;;;12.00;99.90;;;;;;5086753;28;20044;-70
2022/10/29 04:57:01;;;;;;;35.25;16.20;;;12.10;99.90;;;;;;5083274;28;20037;-70
2022/10/29 04:59:28;;;;;;;25.10;13.52;;;12.10;99.90;;;;;;5085448;28;20489;-70
2022/10/29 05:01:54;;;;;;;27.65;13.82;;;12.10;99.90;;;;;;5054709;28;20035;-70
2022/10/29 05:04:20;;;;;;;30.33;13.95;;;12.10;99.90;;;;;;5066674;28;20485;-70
2022/10/29 05:06:46;;;;;;;31.42;15.27;;;12.20;99.90;;;;;;5086317;28;20068;-70
2022/10/29 05:09:11;;;;;;;38.00;14.50;;;12.20;99.90;;;;;;5054233;28;20043;-69
2022/10/29 05:11:37;;;;;;;31.45;15.68;;;12.20;99.90;;;;;;5051344;28;20127;-69
2022/10/29 05:14:03;;;;;;;27.50;13.98;;;12.20;99.90;;;;;;5087324;28;20036;-70
2022/10/29 05:16:29;;;;;;;31.73;14.40;;;12.20;99.90;;;;;;5065670;28;20035;-70
2022/10/29 05:18:55;;;;;;;32.10;14.38;;;12.20;99.90;;;;;;5066111;28;20780;-70
2022/10/29 05:21:20;;;;;;;28.48;14.68;;;12.20;99.90;;;;;;5084577;28;20039;-69
2022/10/29 05:23:46;;;;;;;27.02;13.57;;;12.20;99.90;;;;;;5069227;28;20561;-69
2022/10/29 05:26:12;;;;;;;27.30;14.23;;;12.20;99.90;;;;;;5086549;28;20043;-70
2022/10/29 05:28:37;;;;;;;27.25;13.35;;;12.20;99.90;;;;;;5081689;28;20645;-70
2022/10/29 05:31:03;;;;;;;33.17;14.68;;;12.30;99.90;;;;;;5080362;28;20040;-70
2022/10/29 05:33:29;;;;;;;34.38;15.02;;;12.30;99.90;;;;;;5067523;28;20090;-69
2022/10/29 05:35:55;;;;;;;29.30;14.55;;;12.30;99.90;;;;;;5066634;28;20052;-70
2022/10/29 05:38:21;;;;;;;24.90;14.80;;;12.30;99.90;;;;;;5054355;28;20119;-70
2022/10/29 05:40:46;;;;;;;30.33;14.43;;;12.30;99.90;;;;;;5082388;28;20546;-69
2022/10/29 05:43:14;;;;;;;29.55;16.73;;;12.40;99.90;;;;;;5089654;28;20118;-70
2022/10/29 05:45:41;;;;;;;32.35;16.75;;;12.30;99.90;;;;;;5080718;28;20500;-70
2022/10/29 05:48:07;;;;;;;29.42;14.68;;;12.30;99.90;;;;;;5066498;28;20075;-69
2022/10/29 05:50:33;;;;;;;27.80;15.02;;;12.30;99.90;;;;;;5084638;28;20921;-69
2022/10/29 05:53:02;;;;;;;31.98;13.20;;;12.30;99.90;;;;;;5084499;28;20043;-69
2022/10/29 05:55:28;;;;;;;30.48;13.52;;;12.30;99.90;;;;;;5081498;28;20040;-69
2022/10/29 05:57:59;;;;;;;27.00;13.10;;;12.30;99.90;;;;;;5064494;28;20044;-69
2022/10/29 06:00:26;;;;;;;26.40;12.02;;;12.30;99.90;;;;;;5069558;28;20028;-69
2022/10/29 06:02:53;;;;;;;21.88;11.15;;;12.20;99.90;;;;;;5082296;28;20054;-70
2022/10/29 06:05:19;;;;;;;21.58;11.30;;;12.20;99.90;;;;;;5052099;28;20036;-69
2022/10/29 06:07:45;;;;;;;26.33;11.75;;;12.20;99.90;;;;;;5054687;28;20051;-70
2022/10/29 06:10:11;;;;;;;24.92;11.73;;;12.20;99.90;;;;;;5069406;28;20564;-69
2022/10/29 06:12:37;;;;;;;19.67;12.10;;;12.10;99.90;;;;;;5080392;28;20036;-70
2022/10/29 06:15:03;;;;;;;21.92;11.63;;;12.10;99.90;;;;;;5084776;28;20055;-69
2022/10/29 06:17:29;;;;;;;19.15;10.68;;;12.10;99.90;;;;;;5049066;28;20032;-69
2022/10/29 06:19:54;;;;;;;29.77;12.23;;;12.10;99.90;;;;;;5083207;28;20058;-70
2022/10/29 06:22:20;;;;;;;19.70;11.65;;;12.00;99.90;;;;;;5083071;28;20062;-70
2022/10/29 06:24:46;;;;;;;22.42;11.35;;;12.00;99.90;;;;;;5049105;28;20489;-70
2022/10/29 06:27:14;;;;;;;22.52;11.68;;;12.00;99.90;;;;;;5050701;28;20044;-70
2022/10/29 06:29:40;;;;;;;22.02;11.43;;;12.00;99.90;;;;;;5050969;28;20067;-69
2022/10/29 06:32:05;;;;;;;21.17;10.60;;;11.90;99.90;;;;;;5081025;28;20478;-70
2022/10/29 06:34:31;;;;;;;16.70;11.07;;;11.90;99.90;;;;;;5084922;28;20056;-69
2022/10/29 06:36:57;;;;;;;15.65;10.05;;;11.90;99.90;;;;;;5082344;28;20036;-70
2022/10/29 06:39:23;;;;;;;19.17;9.68;;;11.90;99.90;;;;;;5048604;28;20040;-70
2022/10/29 06:41:48;;;;;;;17.02;10.40;;;11.90;99.90;;;;;;5065974;28;20047;-69
2022/10/29 06:44:21;;;;;;;17.05;9.98;;;11.80;99.90;;;;;;5062873;28;20036;-70
2022/10/29 06:46:47;;;;;;;20.98;11.25;;;11.80;99.90;;;;;;5079617;28;20090;-70
2022/10/29 06:49:13;;;;;;;19.50;10.68;;;11.80;99.90;;;;;;5062579;28;20028;-70
2022/10/29 06:51:38;;;;;;;24.30;12.05;;;11.80;99.90;;;;;;5083680;28;20392;-69
2022/10/29 06:54:04;;;;;;;22.27;11.80;;;11.80;99.90;;;;;;5065528;28;20125;-70
2022/10/29 06:56:30;;;;;;;21.23;11.95;;;11.80;99.90;;;;;;5062332;28;20036;-70
2022/10/29 06:58:56;;;;;;;29.85;14.65;;;11.90;99.90;;;;;;5082380;28;20039;-69
2022/10/29 07:01:22;;;;;;;31.15;14.45;;;11.80;99.90;;;;;;5065568;28;20547;-70
2022/10/29 07:03:48;;;;;;;31.92;14.68;;;11.90;99.90;;;;;;5060976;28;20101;-70
2022/10/29 07:06:13;;;;;;;24.88;14.02;;;11.90;99.90;;;;;;5087224;28;20127;-70
2022/10/29 07:08:39;;;;;;;24.08;13.95;;;11.90;99.90;;;;;;5064139;28;20123;-70
2022/10/29 07:11:06;;;;;;;29.90;15.90;;;11.90;99.90;;;;;;5085004;28;20039;-70
2022/10/29 07:13:31;;;;;;;32.88;14.05;;;11.90;99.90;;;;;;5064116;28;20138;-70
2022/10/29 07:15:58;;;;;;;26.73;14.15;;;11.90;99.90;;;;;;5076119;28;20029;-69
2022/10/29 07:18:25;;;;;;;22.95;12.77;;;11.90;99.90;;;;;;5080356;28;20709;-70
2022/10/29 07:20:50;;;;;;;21.05;12.73;;;11.90;99.90;;;;;;5051803;28;20032;-69
2022/10/29 07:23:16;;;;;;;23.48;12.98;;;11.90;99.90;;;;;;5066947;28;20036;-70
2022/10/29 07:25:42;;;;;;;19.33;11.68;;;11.90;99.90;;;;;;5079887;28;20052;-70
2022/10/29 07:28:12;;;;;;;22.77;14.15;;;11.90;99.90;;;;;;5050548;28;20172;-70
2022/10/29 07:30:38;;;;;;;25.45;14.48;;;11.90;99.90;;;;;;5079510;28;20388;-70
2022/10/29 07:33:04;;;;;;;23.08;14.63;;;11.90;99.90;;;;;;5053579;28;20047;-70
2022/10/29 07:35:32;;;;;;;27.35;15.10;;;12.00;99.90;;;;;;5074684;28;20048;-71
2022/10/29 07:38:02;;;;;;;23.45;14.63;;;12.00;99.90;;;;;;5097916;28;20040;-70
2022/10/29 07:40:28;;;;;;;24.42;13.25;;;12.00;99.90;;;;;;5101224;28;20036;-70
2022/10/29 07:42:53;;;;;;;22.80;13.30;;;12.00;99.90;;;;;;5097312;28;20089;-70
2022/10/29 07:45:20;;;;;;;22.95;13.48;;;12.10;99.90;;;;;;5089254;28;20048;-70
2022/10/29 07:47:46;;;;;;;25.30;13.77;;;12.10;99.90;;;;;;5081235;28;20505;-70
2022/10/29 07:50:15;;;;;;;21.13;13.85;;;12.10;99.90;;;;;;5072162;28;20074;-70
2022/10/29 07:52:41;;;;;;;21.60;14.40;;;12.20;99.90;;;;;;5089295;28;20067;-70
2022/10/29 07:55:08;;;;;;;21.92;14.98;;;12.20;99.90;;;;;;5072209;28;20077;-70
2022/10/29 07:57:33;;;;;;;25.60;14.98;;;12.20;99.90;;;;;;5075152;28;20031;-70
2022/10/29 07:59:59;;;;;;;26.27;16.30;;;12.20;99.90;;;;;;5093538;28;20036;-70
2022/10/29 08:02:25;;;;;;;28.98;17.98;;;12.30;99.90;;;;;;5070740;28;20469;-70
2022/10/29 08:04:51;;;;;;;32.55;18.27;;;12.30;99.90;;;;;;5093188;28;20059;-70
2022/10/29 08:09:52;;;;;;;30.98;17.90;;;12.40;99.90;;;;;;5259074;22;20057;-96
2022/10/29 08:15:18;;;;;;;30.48;16.92;;;12.50;99.90;;;;;;5019758;28;20046;-89
2022/10/29 08:17:44;;;;;;;30.90;17.73;;;12.60;99.90;;;;;;5028113;28;20072;-88
2022/10/29 08:20:10;;;;;;;39.55;18.48;;;12.70;99.90;;;;;;4987486;28;20425;-88
2022/10/29 08:22:35;;;;;;;36.53;18.58;;;12.80;99.90;;;;;;5006219;28;20120;-87
2022/10/29 08:25:01;;;;;;;35.50;17.75;;;12.90;99.90;;;;;;4999462;28;20116;-88
2022/10/29 08:27:27;;;;;;;31.83;17.92;;;12.90;99.90;;;;;;5037041;28;20041;-88
2022/10/29 08:29:53;;;;;;;43.05;20.02;;;13.10;99.90;;;;;;5033883;28;20045;-88
2022/10/29 08:32:18;;;;;;;40.17;19.70;;;13.10;99.90;;;;;;5024888;28;20124;-88
2022/10/29 08:34:44;;;;;;;40.90;19.23;;;13.10;99.90;;;;;;4997993;28;20045;-88
2022/10/29 08:37:09;;;;;;;37.42;19.98;;;13.20;99.90;;;;;;5004631;28;20045;-87
2022/10/29 08:39:35;;;;;;;37.90;19.45;;;13.30;99.90;;;;;;5006363;28;20042;-87
2022/10/29 08:42:13;;;;;;;39.47;17.80;;;13.40;99.90;;;;;;5022707;28;20133;-88
2022/10/29 08:45:22;;;;;;;35.47;18.98;;;13.40;99.90;;;;;;5015783;28;20130;-87
2022/10/29 08:47:57;;;;;;;38.85;19.33;;;13.50;99.90;;;;;;5007697;28;21091;-88
2022/10/29 08:50:29;;;;;;;31.20;17.65;;;13.50;99.90;;;;;;5020535;28;20038;-86
2022/10/29 08:52:55;;;;;;;37.90;19.10;;;13.60;99.90;;;;;;5037165;28;20033;-86
2022/10/29 08:55:35;;;;;;;32.47;18.80;;;13.70;99.90;;;;;;4993195;28;20044;-85
2022/10/29 08:58:18;;;;;;;41.72;20.05;;;13.80;99.90;;;;;;5030622;28;20836;-86
2022/10/29 09:00:45;;;;;;;38.03;19.05;;;13.90;99.90;;;;;;5018340;28;20057;-86
2022/10/29 09:03:11;;;;;;;38.60;18.08;;;14.00;99.90;;;;;;4993785;28;20037;-85
2022/10/29 09:06:07;;;;;;;46.33;18.00;;;14.30;99.90;;;;;;4995658;28;20044;-85
2022/10/29 09:08:51;;;;;;;38.03;17.95;;;14.40;99.90;;;;;;5027927;28;20049;-86
2022/10/29 09:11:45;;;;;;;34.28;17.02;;;14.60;99.90;;;;;;5007905;28;20041;-86
2022/10/29 09:14:37;;;;;;;32.53;17.48;;;14.70;99.90;;;;;;5006892;28;20236;-85
2022/10/29 09:17:35;;;;;;;36.17;17.77;;;14.80;99.90;;;;;;5008658;28;20045;-84
2022/10/29 09:20:35;;;;;;;36.60;18.27;;;15.00;99.90;;;;;;5025691;28;20033;-86
2022/10/29 09:23:40;;;;;;;28.63;16.00;;;15.10;99.90;;;;;;5005703;28;20042;-86
2022/10/29 09:26:24;;;;;;;28.63;16.45;;;15.10;99.90;;;;;;5021964;28;20045;-86
2022/10/29 09:29:21;;;;;;;28.08;14.57;;;15.20;99.90;;;;;;5023453;28;20134;-86
2022/10/29 09:31:53;;;;;;;32.33;15.75;;;15.30;99.90;;;;;;5015984;28;20489;-86
2022/10/29 09:34:36;;;;;;;31.65;15.27;;;15.40;99.90;;;;;;5008846;28;20403;-86
2022/10/29 09:37:12;;;;;;;34.20;15.82;;;15.50;99.90;;;;;;5018632;28;20071;-85
2022/10/29 09:39:40;;;;;;;27.10;14.98;;;15.50;99.90;;;;;;5021928;28;20095;-86
2022/10/29 09:42:17;;;;;;;24.70;13.23;;;15.60;99.90;;;;;;5027380;28;20120;-87
2022/10/29 09:44:46;;;;;;;24.65;12.88;;;15.70;99.90;;;;;;5019858;28;20063;-87
2022/10/29 09:47:20;;;;;;;25.50;12.90;;;15.70;99.90;;;;;;5008748;28;21442;-87
2022/10/29 09:50:02;;;;;;;32.78;14.50;;;15.80;99.90;;;;;;5005604;28;20038;-86
2022/10/29 09:52:34;;;;;;;24.25;12.68;;;15.90;99.90;;;;;;5005729;28;20575;-87
2022/10/29 09:55:01;;;;;;;;;;;16.00;99.90;;;;;;5022115;28;20049;-86
2022/10/29 09:57:29;;;;;;;24.90;13.40;;;16.10;99.90;;;;;;5024250;28;19917;-88
2022/10/29 10:00:04;;;;;;;18.20;10.20;;;16.10;99.90;;;;;;5025458;28;20075;-86
2022/10/29 10:02:47;;;;;;;18.10;9.90;;;16.20;99.90;;;;;;5008963;28;20060;-85
2022/10/29 10:05:12;;;;;;;15.27;9.02;;;16.30;99.90;;;;;;5006586;28;20041;-87
2022/10/29 10:07:39;;;;;;;15.75;9.23;;;16.30;99.90;;;;;;5004730;28;20041;-86
2022/10/29 10:10:22;;;;;;;18.42;10.18;;;16.50;99.90;;;;;;5010713;28;20374;-87
2022/10/29 10:12:49;;;;;;;22.13;10.02;;;16.50;99.90;;;;;;5017971;28;20069;-86
2022/10/29 10:15:14;;;;;;;20.10;11.27;;;16.60;99.90;;;;;;5006247;28;20179;-87
2022/10/29 10:17:58;;;;;;;21.95;10.98;;;16.60;99.90;;;;;;5023268;28;20125;-87
2022/10/29 10:20:32;;;;;;;21.23;11.38;;;16.70;99.90;;;;;;5006326;28;20040;-87
2022/10/29 10:22:58;;;;;;;20.90;11.15;;;16.70;99.90;;;;;;5007041;28;20049;-87
2022/10/29 10:25:38;;;;;;;17.60;9.88;;;16.80;99.90;;;;;;5007932;28;20588;-87
2022/10/29 10:28:22;;;;;;;15.77;9.75;;;16.90;99.90;;;;;;5024383;28;20140;-87
2022/10/29 10:31:05;;;;;;;20.73;11.05;;;16.90;99.90;;;;;;5025378;28;20497;-87
2022/10/29 10:33:33;;;;;;;22.85;10.20;;;16.90;99.90;;;;;;5023420;28;20041;-87
2022/10/29 10:36:06;;;;;;;22.08;11.20;;;17.00;99.90;;;;;;5023820;28;20041;-88
2022/10/29 10:38:44;;;;;;;22.80;10.82;;;17.10;99.90;;;;;;5024494;28;20042;-88
2022/10/29 10:41:12;;;;;;;20.95;11.00;;;17.10;99.90;;;;;;5023734;28;20041;-88
2022/10/29 10:43:45;;;;;;;21.60;11.80;;;17.20;99.90;;;;;;5006117;28;20103;-88
2022/10/29 10:46:15;;;;;;;;;;;17.30;99.90;;;;;;5006647;28;20414;-88
2022/10/29 10:48:41;;;;;;;18.23;10.77;;;17.40;99.90;;;;;;5023075;28;20401;-87
2022/10/29 10:51:13;;;;;;;24.08;10.63;;;17.40;99.90;;;;;;4992244;28;20052;-85
2022/10/29 10:53:40;;;;;;;19.80;10.63;;;17.40;99.90;;;;;;5006403;28;20128;-84
2022/10/29 10:56:18;;;;;;;23.85;11.60;;;17.40;99.90;;;;;;5003922;28;20111;-82
2022/10/29 10:59:07;;;;;;;22.02;10.90;;;17.50;99.90;;;;;;5022262;28;20177;-85
2022/10/29 11:01:44;;;;;;;23.00;11.35;;;17.50;99.90;;;;;;5023100;28;20046;-84
2022/10/29 11:04:37;;;;;;;22.92;11.90;;;17.50;99.90;;;;;;5022472;28;20503;-85
2022/10/29 11:07:08;;;;;;;27.25;11.68;;;17.60;99.90;;;;;;5022714;28;20409;-84
2022/10/29 11:09:42;;;;;;;26.27;11.70;;;17.70;99.90;;;;;;5008657;28;20050;-84
2022/10/29 11:12:38;;;;;;;24.80;12.23;;;17.70;99.90;;;;;;5023282;28;20046;-87
2022/10/29 11:15:22;;;;;;;23.83;11.27;;;17.80;99.90;;;;;;5021982;28;20053;-84
2022/10/29 11:18:12;;;;;;;28.30;12.23;;;17.80;99.90;;;;;;5021309;28;20048;-85
2022/10/29 11:20:42;;;;;;;30.58;12.75;;;17.90;99.90;;;;;;5004451;28;20048;-85
2022/10/29 11:23:43;;;;;;;24.55;12.35;;;17.90;99.90;;;;;;5005464;28;20037;-84
2022/10/29 11:26:59;;;;;;;27.02;12.90;;;17.90;99.90;;;;;;4968171;28;20113;-83
2022/10/29 11:29:42;;;;;;;24.38;11.75;;;17.90;99.90;;;;;;4965283;28;20104;-84
2022/10/29 11:32:22;;;;;;;23.38;12.60;;;17.90;99.90;;;;;;5006708;28;20084;-84
2022/10/29 11:35:08;;;;;;;24.38;13.25;;;18.00;99.90;;;;;;5003157;28;20080;-85
2022/10/29 11:38:00;;;;;;;27.40;13.60;;;18.00;99.90;;;;;;5000624;28;21864;-85
2022/10/29 11:40:47;;;;;;;24.83;13.70;;;18.00;99.90;;;;;;5023629;28;20069;-84
2022/10/29 11:43:17;;;;;;;25.75;13.38;;;18.10;99.90;;;;;;5005256;28;20284;-85
2022/10/29 11:46:01;;;;;;;25.63;14.25;;;18.10;99.90;;;;;;5023019;28;20033;-83
2022/10/29 11:48:45;;;;;;;28.30;15.20;;;18.20;99.90;;;;;;5005320;28;20037;-83
2022/10/29 11:51:34;;;;;;;32.67;13.52;;;18.20;99.90;;;;;;5005622;28;20466;-86
2022/10/29 11:54:08;;;;;;;23.45;13.20;;;18.20;99.90;;;;;;5006640;28;20063;-83
2022/10/29 11:56:52;;;;;;;29.08;12.95;;;18.30;99.90;;;;;;5005657;28;20041;-83
2022/10/29 11:59:25;;;;;;;31.75;13.48;;;18.30;99.90;;;;;;5000696;28;20401;-84
2022/10/29 12:02:39;;;;;;;30.88;13.93;;;18.30;99.90;;;;;;5002402;28;20038;-83
2022/10/29 12:05:29;;;;;;;26.90;12.82;;;18.40;99.90;;;;;;5011516;28;20127;-82
2022/10/29 12:08:13;;;;;;;25.40;12.88;;;18.50;99.90;;;;;;5017325;28;20042;-83
2022/10/29 12:11:02;;;;;;;27.30;12.75;;;18.50;99.90;;;;;;5022505;28;21200;-83
2022/10/29 12:13:37;;;;;;;30.63;13.88;;;18.50;99.90;;;;;;5009527;28;20148;-82
2022/10/29 12:16:10;;;;;;;27.08;13.07;;;18.50;99.90;;;;;;5003275;28;20046;-83
2022/10/29 12:18:58;;;;;;;29.48;14.48;;;18.50;99.90;;;;;;5020810;28;20585;-82
2022/10/29 12:21:42;;;;;;;27.92;13.77;;;18.70;99.90;;;;;;5006893;28;20072;-82
2022/10/29 12:24:15;;;;;;;32.35;14.70;;;18.70;99.90;;;;;;5004495;28;20068;-83
2022/10/29 12:26:59;;;;;;;24.90;12.80;;;18.80;99.90;;;;;;5006370;28;20068;-83
2022/10/29 12:29:48;;;;;;;26.48;14.25;;;18.80;99.90;;;;;;5020418;28;20394;-83
2022/10/29 12:32:32;;;;;;;26.45;13.70;;;18.90;99.90;;;;;;5012073;28;20461;-83
2022/10/29 12:35:05;;;;;;;30.60;14.02;;;18.80;99.90;;;;;;5023998;28;20033;-82
2022/10/29 12:37:42;;;;;;;27.08;13.18;;;18.80;99.90;;;;;;5022168;28;20184;-81
2022/10/29 12:40:32;;;;;;;25.83;14.43;;;18.80;99.90;;;;;;5021461;28;20069;-83
2022/10/29 12:43:05;;;;;;;30.30;14.73;;;18.80;99.90;;;;;;5022712;28;20045;-82
2022/10/29 12:45:50;;;;;;;21.65;13.25;;;18.90;99.90;;;;;;5020555;28;20037;-82
2022/10/29 12:48:44;;;;;;;21.83;12.65;;;18.80;99.90;;;;;;5007596;28;20046;-82
2022/10/29 12:51:19;;;;;;;26.52;12.98;;;18.80;99.90;;;;;;5003751;28;20035;-83
2022/10/29 12:53:44;;;;;;;23.38;12.70;;;18.80;99.90;;;;;;5006480;28;20049;-83
2022/10/29 12:56:12;;;;;;;29.10;13.13;;;19.00;99.90;;;;;;5004689;28;20038;-84
2022/10/29 12:58:47;;;;;;;31.45;13.00;;;18.70;99.90;;;;;;5022401;28;20037;-84
2022/10/29 13:01:25;;;;;;;26.92;12.90;;;18.70;99.90;;;;;;5009278;28;20041;-84